sensor_id;sensor_type;location;lat;lon;timestamp;P1;durP1;ratioP1;P2;durP2;ratioP2
26335;SDS011;14047;50.936;4.654;2022-07-06T00:01:37;5.20;;;2.70;;
26335;SDS011;14047;50.936;4.654;2022-07-06T00:04:03;9.00;;;3.30;;
26335;SDS011;14047;50.936;4.654;2022-07-06T00:06:29;5.57;;;2.97;;
26335;SDS011;14047;50.936;4.654;2022-07-06T00:08:55;8.80;;;3.60;;
26335;SDS011;14047;50.936;4.654;2022-07-06T00:11:21;7.50;;;3.03;;
26335;SDS011;14047;50.936;4.654;2022-07-06T00:13:47;7.00;;;3.08;;
26335;SDS011;14047;50.936;4.654;2022-07-06T00:16:12;7.70;;;3.17;;
26335;SDS011;14047;50.936;4.654;2022-07-06T00:18:38;4.82;;;2.92;;
26335;SDS011;14047;50.936;4.654;2022-07-06T00:21:04;7.00;;;2.97;;
26335;SDS011;14047;50.936;4.654;2022-07-06T00:23:30;6.03;;;3.85;;
26335;SDS011;14047;50.936;4.654;2022-07-06T00:25:56;7.38;;;3.58;;
26335;SDS011;14047;50.936;4.654;2022-07-06T00:28:22;6.82;;;3.83;;
26335;SDS011;14047;50.936;4.654;2022-07-06T00:30:47;10.80;;;4.20;;
26335;SDS011;14047;50.936;4.654;2022-07-06T00:33:13;6.95;;;3.88;;
26335;SDS011;14047;50.936;4.654;2022-07-06T00:35:39;5.75;;;3.70;;
26335;SDS011;14047;50.936;4.654;2022-07-06T00:38:04;12.50;;;3.88;;
26335;SDS011;14047;50.936;4.654;2022-07-06T00:40:30;6.05;;;3.33;;
26335;SDS011;14047;50.936;4.654;2022-07-06T00:42:55;9.02;;;3.22;;
26335;SDS011;14047;50.936;4.654;2022-07-06T00:45:21;8.95;;;3.42;;
26335;SDS011;14047;50.936;4.654;2022-07-06T00:47:47;4.85;;;3.50;;
26335;SDS011;14047;50.936;4.654;2022-07-06T00:50:14;6.40;;;3.88;;
26335;SDS011;14047;50.936;4.654;2022-07-06T00:55:16;12.07;;;3.90;;
26335;SDS011;14047;50.936;4.654;2022-07-06T00:57:49;5.07;;;4.10;;
26335;SDS011;14047;50.936;4.654;2022-07-06T01:00:16;7.93;;;3.33;;
26335;SDS011;14047;50.936;4.654;2022-07-06T01:02:44;7.40;;;4.30;;
26335;SDS011;14047;50.936;4.654;2022-07-06T01:05:11;10.35;;;3.85;;
26335;SDS011;14047;50.936;4.654;2022-07-06T01:07:37;5.57;;;3.38;;
26335;SDS011;14047;50.936;4.654;2022-07-06T01:10:05;8.75;;;4.07;;
26335;SDS011;14047;50.936;4.654;2022-07-06T01:12:31;10.68;;;4.05;;
26335;SDS011;14047;50.936;4.654;2022-07-06T01:14:59;7.22;;;3.45;;
26335;SDS011;14047;50.936;4.654;2022-07-06T01:17:25;6.22;;;3.38;;
26335;SDS011;14047;50.936;4.654;2022-07-06T01:19:51;5.50;;;3.58;;
26335;SDS011;14047;50.936;4.654;2022-07-06T01:22:17;10.13;;;3.80;;
26335;SDS011;14047;50.936;4.654;2022-07-06T01:24:43;6.47;;;3.90;;
26335;SDS011;14047;50.936;4.654;2022-07-06T01:27:08;5.40;;;3.50;;
26335;SDS011;14047;50.936;4.654;2022-07-06T01:29:34;9.38;;;3.58;;
26335;SDS011;14047;50.936;4.654;2022-07-06T01:32:00;9.35;;;3.60;;
26335;SDS011;14047;50.936;4.654;2022-07-06T01:34:26;6.43;;;3.90;;
26335;SDS011;14047;50.936;4.654;2022-07-06T01:36:52;5.97;;;3.33;;
26335;SDS011;14047;50.936;4.654;2022-07-06T01:39:19;9.25;;;3.33;;
26335;SDS011;14047;50.936;4.654;2022-07-06T01:41:45;6.63;;;3.53;;
26335;SDS011;14047;50.936;4.654;2022-07-06T01:44:11;6.35;;;4.10;;
26335;SDS011;14047;50.936;4.654;2022-07-06T01:46:37;11.65;;;4.35;;
26335;SDS011;14047;50.936;4.654;2022-07-06T01:49:04;7.18;;;3.88;;
26335;SDS011;14047;50.936;4.654;2022-07-06T01:51:30;8.95;;;4.07;;
26335;SDS011;14047;50.936;4.654;2022-07-06T01:53:56;7.82;;;4.03;;
26335;SDS011;14047;50.936;4.654;2022-07-06T01:56:21;6.35;;;3.60;;
26335;SDS011;14047;50.936;4.654;2022-07-06T01:58:47;9.90;;;3.78;;
26335;SDS011;14047;50.936;4.654;2022-07-06T02:01:14;8.90;;;4.28;;
26335;SDS011;14047;50.936;4.654;2022-07-06T02:03:44;7.72;;;4.30;;
26335;SDS011;14047;50.936;4.654;2022-07-06T02:06:10;8.25;;;3.88;;
26335;SDS011;14047;50.936;4.654;2022-07-06T02:08:37;8.73;;;4.05;;
26335;SDS011;14047;50.936;4.654;2022-07-06T02:11:04;10.27;;;4.40;;
26335;SDS011;14047;50.936;4.654;2022-07-06T02:13:31;7.57;;;4.28;;
26335;SDS011;14047;50.936;4.654;2022-07-06T02:15:57;9.05;;;4.30;;
26335;SDS011;14047;50.936;4.654;2022-07-06T02:18:23;7.55;;;4.47;;
26335;SDS011;14047;50.936;4.654;2022-07-06T02:20:48;6.68;;;3.88;;
26335;SDS011;14047;50.936;4.654;2022-07-06T02:23:14;9.15;;;4.40;;
26335;SDS011;14047;50.936;4.654;2022-07-06T02:25:40;10.35;;;4.53;;
26335;SDS011;14047;50.936;4.654;2022-07-06T02:28:05;8.52;;;4.50;;
26335;SDS011;14047;50.936;4.654;2022-07-06T02:30:31;8.18;;;4.15;;
26335;SDS011;14047;50.936;4.654;2022-07-06T02:32:57;10.55;;;4.22;;
26335;SDS011;14047;50.936;4.654;2022-07-06T02:35:23;9.48;;;3.85;;
26335;SDS011;14047;50.936;4.654;2022-07-06T02:37:48;9.27;;;4.82;;
26335;SDS011;14047;50.936;4.654;2022-07-06T02:40:14;8.93;;;4.75;;
26335;SDS011;14047;50.936;4.654;2022-07-06T02:42:40;7.93;;;4.57;;
26335;SDS011;14047;50.936;4.654;2022-07-06T02:45:06;7.55;;;4.82;;
26335;SDS011;14047;50.936;4.654;2022-07-06T02:47:32;9.07;;;4.75;;
26335;SDS011;14047;50.936;4.654;2022-07-06T02:49:58;6.38;;;4.45;;
26335;SDS011;14047;50.936;4.654;2022-07-06T02:52:24;7.50;;;4.13;;
26335;SDS011;14047;50.936;4.654;2022-07-06T02:54:49;6.45;;;4.70;;
26335;SDS011;14047;50.936;4.654;2022-07-06T02:57:16;6.60;;;4.18;;
26335;SDS011;14047;50.936;4.654;2022-07-06T02:59:41;7.28;;;4.43;;
26335;SDS011;14047;50.936;4.654;2022-07-06T03:02:07;10.63;;;4.00;;
26335;SDS011;14047;50.936;4.654;2022-07-06T03:04:33;8.70;;;4.57;;
26335;SDS011;14047;50.936;4.654;2022-07-06T03:06:59;9.20;;;4.35;;
26335;SDS011;14047;50.936;4.654;2022-07-06T03:09:25;16.88;;;5.00;;
26335;SDS011;14047;50.936;4.654;2022-07-06T03:11:51;10.63;;;4.97;;
26335;SDS011;14047;50.936;4.654;2022-07-06T03:14:17;9.75;;;4.55;;
26335;SDS011;14047;50.936;4.654;2022-07-06T03:16:42;9.98;;;5.07;;
26335;SDS011;14047;50.936;4.654;2022-07-06T03:19:08;8.30;;;4.60;;
26335;SDS011;14047;50.936;4.654;2022-07-06T03:21:34;9.93;;;4.47;;
26335;SDS011;14047;50.936;4.654;2022-07-06T03:24:00;8.63;;;4.40;;
26335;SDS011;14047;50.936;4.654;2022-07-06T03:26:26;6.78;;;4.22;;
26335;SDS011;14047;50.936;4.654;2022-07-06T03:28:51;8.95;;;4.10;;
26335;SDS011;14047;50.936;4.654;2022-07-06T03:31:17;9.00;;;5.05;;
26335;SDS011;14047;50.936;4.654;2022-07-06T03:33:43;9.23;;;4.57;;
26335;SDS011;14047;50.936;4.654;2022-07-06T03:36:08;11.75;;;4.82;;
26335;SDS011;14047;50.936;4.654;2022-07-06T03:38:35;8.27;;;5.35;;
26335;SDS011;14047;50.936;4.654;2022-07-06T03:41:01;11.45;;;5.88;;
26335;SDS011;14047;50.936;4.654;2022-07-06T03:43:27;11.75;;;6.03;;
26335;SDS011;14047;50.936;4.654;2022-07-06T03:45:53;11.70;;;5.35;;
26335;SDS011;14047;50.936;4.654;2022-07-06T03:48:18;12.82;;;5.32;;
26335;SDS011;14047;50.936;4.654;2022-07-06T03:50:44;12.27;;;5.03;;
26335;SDS011;14047;50.936;4.654;2022-07-06T03:53:09;8.80;;;4.63;;
26335;SDS011;14047;50.936;4.654;2022-07-06T03:55:35;8.32;;;4.43;;
26335;SDS011;14047;50.936;4.654;2022-07-06T03:58:01;9.25;;;4.40;;
26335;SDS011;14047;50.936;4.654;2022-07-06T04:00:27;8.63;;;5.35;;
26335;SDS011;14047;50.936;4.654;2022-07-06T04:02:52;10.02;;;4.93;;
26335;SDS011;14047;50.936;4.654;2022-07-06T04:05:18;14.00;;;5.80;;
26335;SDS011;14047;50.936;4.654;2022-07-06T04:07:46;7.68;;;5.50;;
26335;SDS011;14047;50.936;4.654;2022-07-06T04:10:13;11.98;;;5.75;;
26335;SDS011;14047;50.936;4.654;2022-07-06T04:12:39;8.10;;;4.43;;
26335;SDS011;14047;50.936;4.654;2022-07-06T04:15:08;9.48;;;4.80;;
26335;SDS011;14047;50.936;4.654;2022-07-06T04:17:35;6.60;;;4.38;;
26335;SDS011;14047;50.936;4.654;2022-07-06T04:20:19;7.70;;;4.00;;
26335;SDS011;14047;50.936;4.654;2022-07-06T04:22:46;7.82;;;4.13;;
26335;SDS011;14047;50.936;4.654;2022-07-06T04:25:12;10.95;;;5.75;;
26335;SDS011;14047;50.936;4.654;2022-07-06T04:27:38;5.63;;;4.38;;
26335;SDS011;14047;50.936;4.654;2022-07-06T04:30:04;7.07;;;5.60;;
26335;SDS011;14047;50.936;4.654;2022-07-06T04:32:31;8.98;;;5.20;;
26335;SDS011;14047;50.936;4.654;2022-07-06T04:34:56;8.80;;;5.20;;
26335;SDS011;14047;50.936;4.654;2022-07-06T04:37:22;7.68;;;4.93;;
26335;SDS011;14047;50.936;4.654;2022-07-06T04:39:48;9.57;;;5.22;;
26335;SDS011;14047;50.936;4.654;2022-07-06T04:42:14;11.73;;;5.90;;
26335;SDS011;14047;50.936;4.654;2022-07-06T04:44:39;8.55;;;5.15;;
26335;SDS011;14047;50.936;4.654;2022-07-06T04:47:05;8.23;;;5.28;;
26335;SDS011;14047;50.936;4.654;2022-07-06T04:49:31;6.55;;;4.40;;
26335;SDS011;14047;50.936;4.654;2022-07-06T04:51:57;7.82;;;5.30;;
26335;SDS011;14047;50.936;4.654;2022-07-06T04:54:23;9.60;;;4.40;;
26335;SDS011;14047;50.936;4.654;2022-07-06T04:56:48;9.60;;;4.72;;
26335;SDS011;14047;50.936;4.654;2022-07-06T04:59:14;11.93;;;4.35;;
26335;SDS011;14047;50.936;4.654;2022-07-06T05:01:40;6.47;;;4.65;;
26335;SDS011;14047;50.936;4.654;2022-07-06T05:04:06;9.13;;;5.22;;
26335;SDS011;14047;50.936;4.654;2022-07-06T05:06:32;12.63;;;4.20;;
26335;SDS011;14047;50.936;4.654;2022-07-06T05:08:58;11.30;;;4.70;;
26335;SDS011;14047;50.936;4.654;2022-07-06T05:11:27;10.35;;;4.82;;
26335;SDS011;14047;50.936;4.654;2022-07-06T05:13:53;9.23;;;4.68;;
26335;SDS011;14047;50.936;4.654;2022-07-06T05:16:19;8.85;;;4.47;;
26335;SDS011;14047;50.936;4.654;2022-07-06T05:18:45;11.95;;;4.45;;
26335;SDS011;14047;50.936;4.654;2022-07-06T05:21:11;7.85;;;4.22;;
26335;SDS011;14047;50.936;4.654;2022-07-06T05:23:36;6.45;;;4.28;;
26335;SDS011;14047;50.936;4.654;2022-07-06T05:26:02;6.75;;;4.38;;
26335;SDS011;14047;50.936;4.654;2022-07-06T05:28:27;7.13;;;4.57;;
26335;SDS011;14047;50.936;4.654;2022-07-06T05:30:53;10.80;;;5.25;;
26335;SDS011;14047;50.936;4.654;2022-07-06T05:33:19;10.35;;;5.00;;
26335;SDS011;14047;50.936;4.654;2022-07-06T05:35:44;8.82;;;4.93;;
26335;SDS011;14047;50.936;4.654;2022-07-06T05:38:10;8.10;;;4.88;;
26335;SDS011;14047;50.936;4.654;2022-07-06T05:40:36;10.27;;;5.43;;
26335;SDS011;14047;50.936;4.654;2022-07-06T05:43:02;9.25;;;5.00;;
26335;SDS011;14047;50.936;4.654;2022-07-06T05:45:28;14.20;;;5.65;;
26335;SDS011;14047;50.936;4.654;2022-07-06T05:47:54;13.32;;;5.60;;
26335;SDS011;14047;50.936;4.654;2022-07-06T05:50:38;13.73;;;5.95;;
26335;SDS011;14047;50.936;4.654;2022-07-06T05:53:04;10.95;;;5.53;;
26335;SDS011;14047;50.936;4.654;2022-07-06T05:55:31;10.18;;;5.78;;
26335;SDS011;14047;50.936;4.654;2022-07-06T05:57:57;14.90;;;6.25;;
26335;SDS011;14047;50.936;4.654;2022-07-06T06:00:23;8.85;;;5.72;;
26335;SDS011;14047;50.936;4.654;2022-07-06T06:02:53;8.25;;;5.57;;
26335;SDS011;14047;50.936;4.654;2022-07-06T06:05:18;10.65;;;5.90;;
26335;SDS011;14047;50.936;4.654;2022-07-06T06:07:45;12.57;;;5.78;;
26335;SDS011;14047;50.936;4.654;2022-07-06T06:10:16;12.18;;;5.97;;
26335;SDS011;14047;50.936;4.654;2022-07-06T06:12:43;11.48;;;5.82;;
26335;SDS011;14047;50.936;4.654;2022-07-06T06:15:10;12.70;;;5.68;;
26335;SDS011;14047;50.936;4.654;2022-07-06T06:17:36;9.25;;;5.53;;
26335;SDS011;14047;50.936;4.654;2022-07-06T06:20:07;10.80;;;5.65;;
26335;SDS011;14047;50.936;4.654;2022-07-06T06:22:53;7.45;;;4.63;;
26335;SDS011;14047;50.936;4.654;2022-07-06T06:25:41;10.25;;;5.00;;
26335;SDS011;14047;50.936;4.654;2022-07-06T06:28:07;9.60;;;4.65;;
26335;SDS011;14047;50.936;4.654;2022-07-06T06:30:33;10.50;;;4.82;;
26335;SDS011;14047;50.936;4.654;2022-07-06T06:33:10;12.00;;;4.00;;
26335;SDS011;14047;50.936;4.654;2022-07-06T06:35:44;10.88;;;3.85;;
26335;SDS011;14047;50.936;4.654;2022-07-06T06:38:14;8.75;;;3.63;;
26335;SDS011;14047;50.936;4.654;2022-07-06T06:40:41;6.55;;;3.40;;
26335;SDS011;14047;50.936;4.654;2022-07-06T06:43:07;13.00;;;3.38;;
26335;SDS011;14047;50.936;4.654;2022-07-06T06:45:33;8.23;;;3.40;;
26335;SDS011;14047;50.936;4.654;2022-07-06T06:47:59;8.23;;;2.80;;
26335;SDS011;14047;50.936;4.654;2022-07-06T06:50:25;5.93;;;3.17;;
26335;SDS011;14047;50.936;4.654;2022-07-06T06:52:51;9.05;;;2.83;;
26335;SDS011;14047;50.936;4.654;2022-07-06T06:55:17;4.65;;;2.58;;
26335;SDS011;14047;50.936;4.654;2022-07-06T06:57:43;7.45;;;2.10;;
26335;SDS011;14047;50.936;4.654;2022-07-06T07:00:09;9.35;;;2.83;;
26335;SDS011;14047;50.936;4.654;2022-07-06T07:02:35;5.68;;;2.17;;
26335;SDS011;14047;50.936;4.654;2022-07-06T07:05:02;6.80;;;2.03;;
26335;SDS011;14047;50.936;4.654;2022-07-06T07:07:28;5.43;;;1.95;;
26335;SDS011;14047;50.936;4.654;2022-07-06T07:09:54;8.60;;;2.08;;
26335;SDS011;14047;50.936;4.654;2022-07-06T07:12:19;7.68;;;1.77;;
26335;SDS011;14047;50.936;4.654;2022-07-06T07:14:45;10.27;;;2.03;;
26335;SDS011;14047;50.936;4.654;2022-07-06T07:17:11;6.13;;;1.65;;
26335;SDS011;14047;50.936;4.654;2022-07-06T07:19:37;9.60;;;1.50;;
26335;SDS011;14047;50.936;4.654;2022-07-06T07:22:03;7.28;;;1.38;;
26335;SDS011;14047;50.936;4.654;2022-07-06T07:24:29;3.88;;;1.55;;
26335;SDS011;14047;50.936;4.654;2022-07-06T07:26:55;7.70;;;1.30;;
26335;SDS011;14047;50.936;4.654;2022-07-06T07:29:21;5.47;;;1.75;;
26335;SDS011;14047;50.936;4.654;2022-07-06T07:31:47;8.52;;;1.80;;
26335;SDS011;14047;50.936;4.654;2022-07-06T07:34:12;9.18;;;1.85;;
26335;SDS011;14047;50.936;4.654;2022-07-06T07:36:38;10.52;;;1.90;;
26335;SDS011;14047;50.936;4.654;2022-07-06T07:39:04;4.38;;;1.77;;
26335;SDS011;14047;50.936;4.654;2022-07-06T07:41:30;6.05;;;1.17;;
26335;SDS011;14047;50.936;4.654;2022-07-06T07:43:55;3.88;;;1.25;;
26335;SDS011;14047;50.936;4.654;2022-07-06T07:46:21;4.60;;;1.17;;
26335;SDS011;14047;50.936;4.654;2022-07-06T07:48:46;3.90;;;1.10;;
26335;SDS011;14047;50.936;4.654;2022-07-06T07:51:12;6.40;;;1.20;;
26335;SDS011;14047;50.936;4.654;2022-07-06T07:53:38;7.53;;;0.98;;
26335;SDS011;14047;50.936;4.654;2022-07-06T07:56:03;7.32;;;1.20;;
26335;SDS011;14047;50.936;4.654;2022-07-06T07:58:29;6.28;;;1.48;;
26335;SDS011;14047;50.936;4.654;2022-07-06T08:00:55;8.77;;;1.58;;
26335;SDS011;14047;50.936;4.654;2022-07-06T08:03:21;5.15;;;1.30;;
26335;SDS011;14047;50.936;4.654;2022-07-06T08:05:46;7.25;;;1.15;;
26335;SDS011;14047;50.936;4.654;2022-07-06T08:08:13;7.85;;;1.45;;
26335;SDS011;14047;50.936;4.654;2022-07-06T08:10:39;4.43;;;1.55;;
26335;SDS011;14047;50.936;4.654;2022-07-06T08:13:05;4.95;;;1.08;;
26335;SDS011;14047;50.936;4.654;2022-07-06T08:15:32;2.75;;;0.93;;
26335;SDS011;14047;50.936;4.654;2022-07-06T08:17:58;5.60;;;1.20;;
26335;SDS011;14047;50.936;4.654;2022-07-06T08:20:24;4.43;;;1.00;;
26335;SDS011;14047;50.936;4.654;2022-07-06T08:22:50;5.65;;;1.00;;
26335;SDS011;14047;50.936;4.654;2022-07-06T08:25:16;3.50;;;0.90;;
26335;SDS011;14047;50.936;4.654;2022-07-06T08:27:42;4.57;;;1.08;;
26335;SDS011;14047;50.936;4.654;2022-07-06T08:30:08;4.63;;;1.13;;
26335;SDS011;14047;50.936;4.654;2022-07-06T08:32:39;8.35;;;1.30;;
26335;SDS011;14047;50.936;4.654;2022-07-06T08:35:08;3.35;;;0.80;;
26335;SDS011;14047;50.936;4.654;2022-07-06T08:37:35;9.02;;;1.00;;
26335;SDS011;14047;50.936;4.654;2022-07-06T08:40:01;3.85;;;1.20;;
26335;SDS011;14047;50.936;4.654;2022-07-06T08:42:29;5.07;;;1.10;;
26335;SDS011;14047;50.936;4.654;2022-07-06T08:45:00;4.93;;;1.15;;
26335;SDS011;14047;50.936;4.654;2022-07-06T08:47:28;6.15;;;1.67;;
26335;SDS011;14047;50.936;4.654;2022-07-06T08:49:54;6.25;;;1.23;;
26335;SDS011;14047;50.936;4.654;2022-07-06T08:52:21;5.50;;;1.20;;
26335;SDS011;14047;50.936;4.654;2022-07-06T08:54:48;4.75;;;1.08;;
26335;SDS011;14047;50.936;4.654;2022-07-06T08:57:14;5.40;;;0.93;;
26335;SDS011;14047;50.936;4.654;2022-07-06T08:59:41;3.85;;;0.90;;
26335;SDS011;14047;50.936;4.654;2022-07-06T09:02:06;6.82;;;1.27;;
26335;SDS011;14047;50.936;4.654;2022-07-06T09:04:34;3.30;;;1.10;;
26335;SDS011;14047;50.936;4.654;2022-07-06T09:07:00;5.78;;;1.00;;
26335;SDS011;14047;50.936;4.654;2022-07-06T09:09:26;6.18;;;1.45;;
26335;SDS011;14047;50.936;4.654;2022-07-06T09:11:56;4.80;;;1.52;;
26335;SDS011;14047;50.936;4.654;2022-07-06T09:14:22;5.53;;;0.93;;
26335;SDS011;14047;50.936;4.654;2022-07-06T09:16:51;3.30;;;0.90;;
26335;SDS011;14047;50.936;4.654;2022-07-06T09:19:27;2.00;;;1.00;;
26335;SDS011;14047;50.936;4.654;2022-07-06T09:21:52;3.72;;;0.90;;
26335;SDS011;14047;50.936;4.654;2022-07-06T09:24:19;5.75;;;1.23;;
26335;SDS011;14047;50.936;4.654;2022-07-06T09:26:44;2.65;;;0.93;;
26335;SDS011;14047;50.936;4.654;2022-07-06T09:29:12;4.60;;;1.20;;
26335;SDS011;14047;50.936;4.654;2022-07-06T09:31:39;5.55;;;1.35;;
26335;SDS011;14047;50.936;4.654;2022-07-06T09:34:06;3.40;;;1.20;;
26335;SDS011;14047;50.936;4.654;2022-07-06T09:41:45;5.05;;;1.00;;
26335;SDS011;14047;50.936;4.654;2022-07-06T09:44:12;7.32;;;1.25;;
26335;SDS011;14047;50.936;4.654;2022-07-06T09:46:43;8.75;;;1.40;;
26335;SDS011;14047;50.936;4.654;2022-07-06T09:49:11;7.57;;;1.52;;
26335;SDS011;14047;50.936;4.654;2022-07-06T09:51:37;4.35;;;1.02;;
26335;SDS011;14047;50.936;4.654;2022-07-06T09:54:07;5.60;;;1.23;;
26335;SDS011;14047;50.936;4.654;2022-07-06T09:56:37;8.05;;;1.30;;
26335;SDS011;14047;50.936;4.654;2022-07-06T09:59:09;3.08;;;1.13;;
26335;SDS011;14047;50.936;4.654;2022-07-06T10:01:36;4.15;;;0.93;;
26335;SDS011;14047;50.936;4.654;2022-07-06T10:04:04;4.65;;;0.88;;
26335;SDS011;14047;50.936;4.654;2022-07-06T10:06:33;6.00;;;1.20;;
26335;SDS011;14047;50.936;4.654;2022-07-06T10:09:00;4.20;;;0.80;;
26335;SDS011;14047;50.936;4.654;2022-07-06T10:11:28;9.40;;;1.30;;
26335;SDS011;14047;50.936;4.654;2022-07-06T10:13:55;8.63;;;1.27;;
26335;SDS011;14047;50.936;4.654;2022-07-06T10:16:22;10.32;;;1.23;;
26335;SDS011;14047;50.936;4.654;2022-07-06T10:18:49;6.22;;;1.00;;
26335;SDS011;14047;50.936;4.654;2022-07-06T10:21:18;8.95;;;1.25;;
26335;SDS011;14047;50.936;4.654;2022-07-06T10:23:45;5.93;;;1.20;;
26335;SDS011;14047;50.936;4.654;2022-07-06T10:26:11;5.70;;;1.40;;
26335;SDS011;14047;50.936;4.654;2022-07-06T10:28:37;4.30;;;0.95;;
26335;SDS011;14047;50.936;4.654;2022-07-06T10:31:04;7.75;;;1.40;;
26335;SDS011;14047;50.936;4.654;2022-07-06T10:33:31;6.82;;;1.40;;
26335;SDS011;14047;50.936;4.654;2022-07-06T10:35:58;3.30;;;1.23;;
26335;SDS011;14047;50.936;4.654;2022-07-06T10:38:33;3.83;;;1.02;;
26335;SDS011;14047;50.936;4.654;2022-07-06T10:41:03;5.65;;;1.35;;
26335;SDS011;14047;50.936;4.654;2022-07-06T10:43:35;4.75;;;0.93;;
26335;SDS011;14047;50.936;4.654;2022-07-06T10:46:06;3.85;;;0.95;;
26335;SDS011;14047;50.936;4.654;2022-07-06T10:48:43;4.20;;;1.23;;
26335;SDS011;14047;50.936;4.654;2022-07-06T10:51:28;3.13;;;1.23;;
26335;SDS011;14047;50.936;4.654;2022-07-06T10:53:58;7.00;;;1.50;;
26335;SDS011;14047;50.936;4.654;2022-07-06T10:56:35;3.17;;;1.10;;
26335;SDS011;14047;50.936;4.654;2022-07-06T10:59:08;7.13;;;1.63;;
26335;SDS011;14047;50.936;4.654;2022-07-06T11:01:38;5.53;;;1.20;;
26335;SDS011;14047;50.936;4.654;2022-07-06T11:06:34;6.25;;;1.30;;
26335;SDS011;14047;50.936;4.654;2022-07-06T11:09:05;4.32;;;1.10;;
26335;SDS011;14047;50.936;4.654;2022-07-06T11:19:14;5.15;;;1.42;;
26335;SDS011;14047;50.936;4.654;2022-07-06T11:21:44;4.07;;;1.10;;
26335;SDS011;14047;50.936;4.654;2022-07-06T11:24:30;5.22;;;1.25;;
26335;SDS011;14047;50.936;4.654;2022-07-06T11:26:57;6.72;;;1.77;;
26335;SDS011;14047;50.936;4.654;2022-07-06T11:29:26;7.40;;;1.88;;
26335;SDS011;14047;50.936;4.654;2022-07-06T11:31:53;7.88;;;1.50;;
26335;SDS011;14047;50.936;4.654;2022-07-06T11:34:28;4.47;;;1.55;;
26335;SDS011;14047;50.936;4.654;2022-07-06T11:36:56;4.55;;;1.40;;
26335;SDS011;14047;50.936;4.654;2022-07-06T11:39:29;7.50;;;1.13;;
26335;SDS011;14047;50.936;4.654;2022-07-06T11:41:56;4.18;;;1.50;;
26335;SDS011;14047;50.936;4.654;2022-07-06T11:44:23;4.00;;;1.33;;
26335;SDS011;14047;50.936;4.654;2022-07-06T11:46:48;4.60;;;1.55;;
26335;SDS011;14047;50.936;4.654;2022-07-06T11:49:14;3.60;;;1.35;;
26335;SDS011;14047;50.936;4.654;2022-07-06T11:51:41;6.65;;;1.45;;
26335;SDS011;14047;50.936;4.654;2022-07-06T11:54:08;4.13;;;1.35;;
26335;SDS011;14047;50.936;4.654;2022-07-06T11:56:35;6.75;;;1.20;;
26335;SDS011;14047;50.936;4.654;2022-07-06T11:59:01;4.78;;;1.45;;
26335;SDS011;14047;50.936;4.654;2022-07-06T12:01:28;3.50;;;1.00;;
26335;SDS011;14047;50.936;4.654;2022-07-06T12:04:00;11.13;;;1.67;;
26335;SDS011;14047;50.936;4.654;2022-07-06T12:06:28;4.97;;;1.40;;
26335;SDS011;14047;50.936;4.654;2022-07-06T12:08:58;7.50;;;1.30;;
26335;SDS011;14047;50.936;4.654;2022-07-06T12:11:26;6.18;;;1.60;;
26335;SDS011;14047;50.936;4.654;2022-07-06T12:13:58;5.40;;;1.65;;
26335;SDS011;14047;50.936;4.654;2022-07-06T12:16:36;10.93;;;1.35;;
26335;SDS011;14047;50.936;4.654;2022-07-06T12:19:03;5.38;;;1.65;;
26335;SDS011;14047;50.936;4.654;2022-07-06T12:21:30;7.20;;;1.67;;
26335;SDS011;14047;50.936;4.654;2022-07-06T12:23:56;7.30;;;2.00;;
26335;SDS011;14047;50.936;4.654;2022-07-06T12:26:23;6.10;;;1.85;;
26335;SDS011;14047;50.936;4.654;2022-07-06T12:29:09;5.57;;;1.85;;
26335;SDS011;14047;50.936;4.654;2022-07-06T12:31:39;6.55;;;1.52;;
26335;SDS011;14047;50.936;4.654;2022-07-06T12:34:12;9.55;;;1.75;;
26335;SDS011;14047;50.936;4.654;2022-07-06T12:36:58;10.13;;;1.80;;
26335;SDS011;14047;50.936;4.654;2022-07-06T12:39:28;5.43;;;1.88;;
26335;SDS011;14047;50.936;4.654;2022-07-06T12:41:55;14.25;;;2.30;;
26335;SDS011;14047;50.936;4.654;2022-07-06T12:44:26;10.65;;;2.03;;
26335;SDS011;14047;50.936;4.654;2022-07-06T12:47:04;5.65;;;1.83;;
26335;SDS011;14047;50.936;4.654;2022-07-06T12:49:32;6.45;;;1.77;;
26335;SDS011;14047;50.936;4.654;2022-07-06T12:51:59;7.25;;;1.90;;
26335;SDS011;14047;50.936;4.654;2022-07-06T12:54:41;5.70;;;2.25;;
26335;SDS011;14047;50.936;4.654;2022-07-06T12:57:18;7.90;;;1.92;;
26335;SDS011;14047;50.936;4.654;2022-07-06T13:02:19;3.97;;;2.28;;
26335;SDS011;14047;50.936;4.654;2022-07-06T13:04:59;5.03;;;2.35;;
26335;SDS011;14047;50.936;4.654;2022-07-06T13:07:27;8.27;;;2.22;;
26335;SDS011;14047;50.936;4.654;2022-07-06T13:09:54;7.50;;;2.28;;
26335;SDS011;14047;50.936;4.654;2022-07-06T13:12:20;7.05;;;2.42;;
26335;SDS011;14047;50.936;4.654;2022-07-06T13:14:46;4.38;;;1.92;;
26335;SDS011;14047;50.936;4.654;2022-07-06T13:17:12;5.88;;;2.20;;
26335;SDS011;14047;50.936;4.654;2022-07-06T13:19:38;5.85;;;2.30;;
26335;SDS011;14047;50.936;4.654;2022-07-06T13:22:04;6.30;;;2.65;;
26335;SDS011;14047;50.936;4.654;2022-07-06T13:24:30;5.15;;;2.38;;
26335;SDS011;14047;50.936;4.654;2022-07-06T13:26:55;10.23;;;2.45;;
26335;SDS011;14047;50.936;4.654;2022-07-06T13:29:22;7.95;;;2.28;;
26335;SDS011;14047;50.936;4.654;2022-07-06T13:31:48;11.98;;;2.42;;
26335;SDS011;14047;50.936;4.654;2022-07-06T13:34:14;9.60;;;2.50;;
26335;SDS011;14047;50.936;4.654;2022-07-06T13:36:40;5.72;;;2.28;;
26335;SDS011;14047;50.936;4.654;2022-07-06T13:39:06;9.20;;;2.38;;
26335;SDS011;14047;50.936;4.654;2022-07-06T13:41:32;8.40;;;1.98;;
26335;SDS011;14047;50.936;4.654;2022-07-06T13:43:59;6.20;;;2.20;;
26335;SDS011;14047;50.936;4.654;2022-07-06T13:46:28;7.20;;;2.33;;
26335;SDS011;14047;50.936;4.654;2022-07-06T13:48:55;6.93;;;1.98;;
26335;SDS011;14047;50.936;4.654;2022-07-06T13:51:22;7.05;;;2.10;;
26335;SDS011;14047;50.936;4.654;2022-07-06T13:53:49;5.35;;;1.92;;
26335;SDS011;14047;50.936;4.654;2022-07-06T13:56:15;5.90;;;2.08;;
26335;SDS011;14047;50.936;4.654;2022-07-06T13:58:41;4.38;;;1.80;;
26335;SDS011;14047;50.936;4.654;2022-07-06T14:01:07;3.33;;;1.80;;
26335;SDS011;14047;50.936;4.654;2022-07-06T14:03:33;9.13;;;1.48;;
26335;SDS011;14047;50.936;4.654;2022-07-06T14:05:59;7.75;;;1.75;;
26335;SDS011;14047;50.936;4.654;2022-07-06T14:08:26;7.78;;;1.25;;
26335;SDS011;14047;50.936;4.654;2022-07-06T14:10:52;4.22;;;1.55;;
26335;SDS011;14047;50.936;4.654;2022-07-06T14:13:19;9.18;;;1.73;;
26335;SDS011;14047;50.936;4.654;2022-07-06T14:15:46;4.35;;;1.50;;
26335;SDS011;14047;50.936;4.654;2022-07-06T14:18:11;8.13;;;1.83;;
26335;SDS011;14047;50.936;4.654;2022-07-06T14:20:37;6.47;;;1.38;;
26335;SDS011;14047;50.936;4.654;2022-07-06T14:23:03;3.00;;;1.20;;
26335;SDS011;14047;50.936;4.654;2022-07-06T14:25:29;4.10;;;1.67;;
26335;SDS011;14047;50.936;4.654;2022-07-06T14:27:54;4.93;;;1.55;;
26335;SDS011;14047;50.936;4.654;2022-07-06T14:30:20;5.05;;;1.40;;
26335;SDS011;14047;50.936;4.654;2022-07-06T14:32:46;7.20;;;1.88;;
26335;SDS011;14047;50.936;4.654;2022-07-06T14:35:11;4.15;;;1.50;;
26335;SDS011;14047;50.936;4.654;2022-07-06T14:37:37;4.38;;;1.60;;
26335;SDS011;14047;50.936;4.654;2022-07-06T14:40:03;4.40;;;1.42;;
26335;SDS011;14047;50.936;4.654;2022-07-06T14:42:29;4.68;;;1.65;;
26335;SDS011;14047;50.936;4.654;2022-07-06T14:44:55;6.82;;;1.80;;
26335;SDS011;14047;50.936;4.654;2022-07-06T14:47:20;13.35;;;1.58;;
26335;SDS011;14047;50.936;4.654;2022-07-06T14:49:46;5.10;;;1.27;;
26335;SDS011;14047;50.936;4.654;2022-07-06T14:52:12;5.72;;;1.42;;
26335;SDS011;14047;50.936;4.654;2022-07-06T14:54:38;3.33;;;1.38;;
26335;SDS011;14047;50.936;4.654;2022-07-06T14:57:04;8.13;;;1.83;;
26335;SDS011;14047;50.936;4.654;2022-07-06T14:59:33;4.35;;;1.50;;
26335;SDS011;14047;50.936;4.654;2022-07-06T15:01:59;3.45;;;1.20;;
26335;SDS011;14047;50.936;4.654;2022-07-06T15:04:24;4.78;;;1.17;;
26335;SDS011;14047;50.936;4.654;2022-07-06T15:06:50;5.20;;;1.60;;